8A1 weather

Guntersville Municipal Joe Starnes Field
Guntersville, Alabama, United States

Public forecast

Using degrees Fahrenheit for public forecast. Weather courtesy of forecast.io.

Closest aviation weather report (METAR) to Guntersville Municipal Joe Starnes Field

Closest report is Albertville Regional Airport/Thomas J Brumlik Field, 10.2 nm (19.0 km) S. Retrieved UTC (0 seconds ago):

Closest aviation forecast (TAF) to Guntersville Municipal Joe Starnes Field

Closest forecast is Huntsville International Carl T Jones Field, 28.8 nm (53.3 km) WNW. Retrieved 2020/02/18 06:22 UTC (0 seconds ago):

TAF KHSV 180520Z 1806/1906 16008KT P6SM VCTS BKN015CB TEMPO 1807/1811 4SM -TSRA BR BKN007CB FM181100 17006KT 4SM SHRA BR VCTS BKN008CB OVC015 FM181700 22015G20KT 4SM -TSRA BR OVC007CB FM182200 29015G20KT 4SM -RA BR OVC007 FM182300 35015G20KT 5SM -RA OVC015